• Home
  • Poker

GGPoker Bounty Series - $40m GTD prize pool starts Sunday

  • New poker series for October 2020
  • $40m GTD prize pool
  • Notable big events you can join
Play at the GGPoker $40m GTD Bounty Series starting Sunday (code="NEWBONUS")
Record-Setting $40M Bounty Hunter Series is here.

GGpoker continues to raise the bar in online poker games with the WSOP Online Series, the world record-setting WSOP Online Series Main Event and GGSOP making for an unforgettable season of poker. 

Beginning this Sunday, the poker room is going for another record with their first-ever Bounty Hunters Series! The $40M+ total series guarantee will be the largest ever for a knockout tournament festival.

The GGPoker Bounty Hunter Series runs from 11-25 October 2020 and the poker room is guaranteeing $40million in prize money.  As you can see from the schedule below of over 350 events and 500 total tournaments this is a major poker festival!

If you are new to GGPoker you can use the GGPoker promo code NEWBONUS

    GGPoker Bounty Hunters 2020
  • GGPoker Series Highlights
  • $100,000 Bounty Hunters Leaderboard
  • GGPoker Series Schedule


GGPoker Series Highlights


GGMasters Daily $25, $50K GTD – Daily Freezeout @ 17:00 GMT. 
This might be one to target if you want to grow your bankroll and enjoy lower & mid-sized stakes. 

Super MILLION$ Bounty $10K, $1M GTD – Biggest Bounty Ever!

Beat The Pros $210, $250K GTD – Win A Seat To A $5K Freeroll

Bounty King $3K/$315/$31.50 – Huge Guarantees
This runs multiple times and targets high rollers - up to $300k GTD in the Bounty King HIgh Roller Tournament.

Speed Racer – 10BB Hyper Action!  
Hyperfast tournaments that allow you to start with just 10 big blinds and knockout action



$100,000 Bounty Hunters Leaderboard

The poker leaderboard that was so popular at the GGSOP is back. The top 100 Players will share in $100,000.  Bounty Hunters Series Leaderboard. The leaderboard begins on October 11.

Leaderboard Point = f * sqrt(Prize pool / k)

k is the place of finish
f=2.0 (1st place)
f=1.5 (Final table)
f=1.0 (In the money)
f=0.5 (Bubble)



GGPoker Series Schedule


Date
GMT
Event
Event Name
Buy-in
GTD
11-Oct 12:00 BHS 001 Opener $210 $210.00 $100,000
11-Oct 12:30 BHS 002 PLO 6-Max $105 $105.00 $25,000
11-Oct 13:00 BHS 003 Turbo $5.25 $5.25 $10,000
11-Oct 13:00 BHS Event Speed Racer SE $52.50 [10 BB] $52.50 $10,000
11-Oct 13:30 BHS 004 Sunday Six Shooter Special $105 $105.00 $50,000
11-Oct 13:30 BHS 005 Sunday Six Shooter Turbo $10.50 $10.50 $25,000
11-Oct 14:00 BHS 006 Sunday Battle of Marathon $315 $315.00 $250,000
11-Oct 14:30 BHS 007 Special Edition $84 $84.00 $200,000
11-Oct 15:00 BHS Event Speed Racer SE $21 [10 BB] $21.00 $10,000
11-Oct 15:30 BHS 008 Main Event Special Edition $210 $210.00 $500,000
11-Oct 16:00 BHS Event Blade Bounty Opener $5,250 $5,250.00 $60,000
11-Oct 16:30 BHS 009 Bounty High Roller SE $525 $525.00 $200,000
11-Oct 17:30 BHS 010 PLO High Roller $2,100 $2,100.00 $100,000
11-Oct 17:30 BHS 011 PLO Main Event $210 $210.00 $50,000
11-Oct 18:30 BHS 012 Super MILLION$ Bounty Hunters $10,300 $10,300.00 $1,000,000
11-Oct 18:30 BHS 013 Sunday Bounty King High Roller SE $3,150 $3,150.00 $300,000
11-Oct 18:30 BHS 014 Sunday Bounty King Special Edition $315 $315.00 $400,000
11-Oct 19:00 BHS 015 Special Edition $52.50 $52.50 $150,000
11-Oct 19:00 BHS Event Speed Racer SE $31.50 [10 BB] $31.50 $10,000
11-Oct 19:30 BHS 016 Special Edition $105 $105.00 $200,000
11-Oct 20:30 BHS 017 Six Shooter High Roller $1,260 $1,260.00 $200,000
11-Oct 21:00 BHS 018 Sunday Turbo Special $52.50 [Bounty Edition] $52.50 $50,000
11-Oct 21:00 BHS 019 Sunday Turbo Special $5.25 [Bounty Edition] $5.25 $10,000
11-Oct 22:00 BHS 020 Blade Bounty Closer $5,250 $5,250.00 $150,000
11-Oct 22:00 BHS 021 Sunday Hyper Special $52.50 [Bounty Edition] $52.50 $50,000
11-Oct 22:00 BHS 022 Sunday Hyper Special $5.25 [Bounty Edition] $5.25 $10,000
11-Oct 22:00 BHS Event Blade Bounty Closer $5,250 $5,250.00 $75,000
11-Oct 23:00 BHS Event Sunday Speed Racer SE $210 [10BB] $210.00 $50,000
11-Oct 23:00 BHS Event Sunday Speed Racer SE $21 [10BB] $21.00 $20,000
12-Oct 0:00 BHS Event Midnight Madness $126 $126.00 $40,000
12-Oct 0:30 BHS Event Special Edition $105 $105.00 $30,000
12-Oct 0:30 BHS Event Special Edition $10.50 $10.50 $10,000
12-Oct 2:00 BHS Event Six Shooter Special $126 $126.00 $20,000
12-Oct 2:30 BHS Event Turbo Special Edition $21 $21.00 $10,000
12-Oct 2:30 BHS Event Turbo Special Edition $210 $210.00 $25,000
12-Oct 3:00 BHS Event Speed Racer SE $52.50 [10 BB] $52.50 $10,000
12-Oct 12:30 BHS 023 Blastoff $210 $210.00 $50,000
12-Oct 13:00 BHS Event Speed Racer SE $52.50 [10 BB] $52.50 $10,000
12-Oct 13:30 BHS 024 Six Shooter Special $105 $105.00 $40,000
12-Oct 13:30 BHS 025 Six Shooter Special $10.50 $10.50 $25,000
12-Oct 14:00 BHS 026 8-Max $5.25 $5.25 $20,000
12-Oct 14:00 BHS 027 Battle of Marathon $315 $315.00 $100,000
12-Oct 14:30 BHS 028 Special Edition $84 $84.00 $100,000
12-Oct 15:00 BHS Event Speed Racer SE $21 [10 BB] $21.00 $10,000
12-Oct 15:30 BHS 029 Six Shooter $252 $252.00 $125,000
12-Oct 16:00 BHS 030 Forty Stack $420 [Bounty Edition] $420.00 $100,000
12-Oct 16:00 BHS Event Blade Bounty Opener $5,250 $5,250.00 $60,000
12-Oct 16:30 BHS 031 Bounty Hunters High Roller SE $525 $525.00 $100,000
12-Oct 17:00 BHS 032 GGMasters Daily $25.20 [Bounty Edition] $25.20 $50,000
12-Oct 17:30 BHS 033 Special Edition $210 $210.00 $125,000
12-Oct 18:30 BHS 034 Bounty King HR Main Event $3,150 $3,150.00 $150,000
12-Oct 18:30 BHS 035 Bounty King Main Event $315 $315.00 $150,000
12-Oct 18:30 BHS 036 Bounty King Mini Main Event $31.50 $31.50 $75,000
12-Oct 19:00 BHS 037 PLO High Roller $1,050 $1,050.00 $50,000
12-Oct 19:00 BHS 038 Omaholic Main Event $105 [Bounty Edition] $105.00 $20,000
12-Oct 19:00 BHS Event Speed Racer SE $31.50 [10 BB] $31.50 $10,000
12-Oct 19:30 BHS 039 Special Edition $105 $105.00 $100,000
12-Oct 20:00 BHS 040 8-Max $84 [Faster Levels] $84.00 $50,000
12-Oct 20:30 BHS 041 Six Shooter High Roller $1,260 $1,260.00 $100,000
12-Oct 21:00 BHS 042 Turbo $52.50 [Bounty Edition] $52.50 $25,000
12-Oct 21:00 BHS 043 Turbo $5.25 [Bounty Edition] $5.25 $5,000
12-Oct 22:00 BHS 044 Hyper Special Edition $52.50 $52.50 $25,000
12-Oct 22:00 BHS 045 Hyper Special Edition $5.25 $5.25 $5,000
12-Oct 22:00 BHS Event Blade Bounty Closer $5,250 $5,250.00 $75,000
12-Oct 23:00 BHS Event Speed Racer SE $10.50 [10 BB] $10.50 $7,500
12-Oct 23:00 BHS Event Speed Racer SE $105 [10 BB] $105.00 $25,000
13-Oct 0:00 BHS Event Midnight Madness $126 $126.00 $40,000
13-Oct 0:30 BHS Event Special Edition $105 $105.00 $30,000
13-Oct 0:30 BHS Event Special Edition $10.50 $10.50 $10,000
13-Oct 2:00 BHS Event Six Shooter Special $126 $126.00 $20,000
13-Oct 2:30 BHS Event Turbo Special Edition $21 $21.00 $10,000
13-Oct 2:30 BHS Event Turbo Special Edition $210 $210.00 $25,000
13-Oct 3:00 BHS Event Speed Racer SE $52.50 [10 BB] $52.50 $10,000
13-Oct 12:30 BHS 046 Blastoff $210 $210.00 $50,000
13-Oct 13:00 BHS Event Speed Racer SE $52.50 [10 BB] $52.50 $10,000
13-Oct 13:30 BHS 047 Six Shooter Special $105 $105.00 $40,000
13-Oct 13:30 BHS 048 Six Shooter Special $10.50 $10.50 $25,000
13-Oct 14:00 BHS 049 8-Max $5.25 $5.25 $20,000
13-Oct 14:00 BHS 050 Battle of Marathon $315 $315.00 $100,000
13-Oct 14:30 BHS 051 Special Edition $84 $84.00 $100,000
13-Oct 14:30 BHS 052 High Roller $840 $840.00 $150,000
13-Oct 15:00 BHS Event Speed Racer SE $21 [10 BB] $21.00 $10,000
13-Oct 15:30 BHS 053 Six Shooter $252 $252.00 $125,000
13-Oct 16:00 BHS 054 Forty Stack $420 [Bounty Edition] $420.00 $100,000
13-Oct 16:00 BHS Event Blade Bounty Opener $5,250 $5,250.00 $60,000
13-Oct 16:30 BHS 055 Bounty Hunters High Roller SE $525 $525.00 $100,000
13-Oct 17:00 BHS 056 GGMasters Daily $25.20 [Bounty Edition] $25.20 $50,000
13-Oct 17:30 BHS 057 Special Edition $210 $210.00 $125,000
13-Oct 18:30 BHS 058 Bounty King HR Main Event $3,150 $3,150.00 $150,000
13-Oct 18:30 BHS 059 Bounty King Main Event $315 $315.00 $150,000
13-Oct 18:30 BHS 060 Bounty King Mini Main Event $31.50 $31.50 $75,000
13-Oct 19:00 BHS 061 PLO High Roller $1,050 $1,050.00 $50,000
13-Oct 19:00 BHS 062 Omaholic Main Event $105 [Bounty Edition] $105.00 $20,000
13-Oct 19:00 BHS Event Speed Racer SE $31.50 [10 BB] $31.50 $10,000
13-Oct 19:30 BHS 063 Special Edition $105 $105.00 $100,000
13-Oct 20:00 BHS 064 8-Max $84 [Faster Levels] $84.00 $50,000
13-Oct 20:30 BHS 065 Six Shooter High Roller $1,260 $1,260.00 $100,000
13-Oct 21:00 BHS 066 Turbo $52.50 [Bounty Edition] $52.50 $25,000
13-Oct 21:00 BHS 067 Turbo $5.25 [Bounty Edition] $5.25 $5,000
13-Oct 22:00 BHS 068 Hyper Special Edition $52.50 $52.50 $25,000
13-Oct 22:00 BHS 069 Hyper Special Edition $5.25 $5.25 $5,000
13-Oct 22:00 BHS Event Blade Bounty Closer $5,250 $5,250.00 $75,000
13-Oct 23:00 BHS Event Speed Racer SE $10.50 [10 BB] $10.50 $7,500
13-Oct 23:00 BHS Event Speed Racer SE $105 [10 BB] $105.00 $25,000
14-Oct 0:00 BHS Event Midnight Madness $126 $126.00 $40,000
14-Oct 0:30 BHS Event Special Edition $105 $105.00 $30,000
14-Oct 0:30 BHS Event Special Edition $10.50 $10.50 $10,000
14-Oct 2:00 BHS Event Six Shooter Special $126 $126.00 $20,000
14-Oct 2:30 BHS Event Turbo Special Edition $21 $21.00 $10,000
14-Oct 2:30 BHS Event Turbo Special Edition $210 $210.00 $25,000
14-Oct 3:00 BHS Event Speed Racer SE $52.50 [10 BB] $52.50 $10,000
14-Oct 12:30 BHS 070 Blastoff $210 $210.00 $50,000
14-Oct 13:00 BHS Event Speed Racer SE $52.50 [10 BB] $52.50 $10,000
14-Oct 13:30 BHS 071 Six Shooter Special $105 $105.00 $40,000
14-Oct 13:30 BHS 072 Six Shooter Special $10.50 $10.50 $25,000
14-Oct 14:00 BHS 073 8-Max $5.25 $5.25 $20,000
14-Oct 14:00 BHS 074 Battle of Marathon $315 $315.00 $100,000
14-Oct 14:30 BHS 075 Special Edition $84 $84.00 $100,000
14-Oct 15:00 BHS Event Speed Racer SE $21 [10 BB] $21.00 $10,000
14-Oct 15:30 BHS 076 Six Shooter $252 $252.00 $100,000
14-Oct 16:00 BHS 077 Forty Stack $420 [Bounty Edition] $420.00 $100,000
14-Oct 16:00 BHS Event Blade Bounty Opener $5,250 $5,250.00 $60,000
14-Oct 16:30 BHS 078 Bounty Hunters High Roller SE $525 $525.00 $100,000
14-Oct 17:00 BHS 079 GGMasters Daily $25.20 [Bounty Edition] $25.20 $50,000
14-Oct 17:30 BHS 080 Special Edition $210 $210.00 $125,000
14-Oct 18:30 BHS 081 Bounty King HR Main Event $3,150 $3,150.00 $150,000
14-Oct 18:30 BHS 082 Bounty King Main Event $315 $315.00 $150,000
14-Oct 18:30 BHS 083 Bounty King Mini Main Event $31.50 $31.50 $75,000
14-Oct 19:00 BHS 084 PLO High Roller $1,050 $1,050.00 $50,000
14-Oct 19:00 BHS 085 Omaholic Main Event $105 [Bounty Edition] $105.00 $20,000
14-Oct 19:00 BHS Event Speed Racer SE $31.50 [10 BB] $31.50 $10,000
14-Oct 19:30 BHS 086 Special Edition $105 $105.00 $100,000
14-Oct 20:00 BHS 087 8-Max $84 [Faster Levels] $84.00 $50,000
14-Oct 20:30 BHS 088 Six Shooter High Roller $1,260 $1,260.00 $100,000
14-Oct 21:00 BHS 089 Turbo $52.50 [Bounty Edition] $52.50 $25,000
14-Oct 21:00 BHS 090 Turbo $5.25 [Bounty Edition] $5.25 $5,000
14-Oct 22:00 BHS 091 Hyper Special Edition $52.50 $52.50 $25,000
14-Oct 22:00 BHS 092 Hyper Special Edition $5.25 $5.25 $5,000
14-Oct 22:00 BHS Event Blade Bounty Closer $5,250 $5,250.00 $75,000
14-Oct 23:00 BHS Event Speed Racer SE $10.50 [10 BB] $10.50 $7,500
14-Oct 23:00 BHS Event Speed Racer SE $105 [10 BB] $105.00 $25,000
15-Oct 0:00 BHS Event Midnight Madness $126 $126.00 $40,000
15-Oct 0:30 BHS Event Special Edition $105 $105.00 $30,000
15-Oct 0:30 BHS Event Special Edition $10.50 $10.50 $10,000
15-Oct 2:00 BHS Event Six Shooter Special $126 $126.00 $20,000
15-Oct 2:30 BHS Event Turbo Special Edition $21 $21.00 $10,000
15-Oct 2:30 BHS Event Turbo Special Edition $210 $210.00 $25,000
15-Oct 3:00 BHS Event Speed Racer SE $52.50 [10 BB] $52.50 $10,000
15-Oct 12:30 BHS 093 Blastoff $210 $210.00 $50,000
15-Oct 13:00 BHS Event Speed Racer SE $52.50 [10 BB] $52.50 $10,000
15-Oct 13:30 BHS 094 Six Shooter Special $105 $105.00 $40,000
15-Oct 13:30 BHS 095 Six Shooter Special $10.50 $10.50 $25,000
15-Oct 14:00 BHS 096 8-Max $5.25 $5.25 $20,000
15-Oct 14:00 BHS 097 Battle of Marathon $315 $315.00 $100,000
15-Oct 14:30 BHS 098 Special Edition $84 $84.00 $100,000
15-Oct 15:00 BHS Event Speed Racer SE $21 [10 BB] $21.00 $10,000
15-Oct 15:30 BHS 099 Six Shooter $252 $252.00 $100,000
15-Oct 16:00 BHS 100 Forty Stack $420 [Bounty Edition] $420.00 $100,000
15-Oct 16:00 BHS Event Blade Bounty Opener $5,250 $5,250.00 $60,000
15-Oct 16:30 BHS 101 Bounty Hunters High Roller SE $525 $525.00 $100,000
15-Oct 17:00 BHS 102 GGMasters Daily $25.20 [Bounty Edition] $25.20 $50,000
15-Oct 17:30 BHS 103 Special Edition $210 $210.00 $125,000
15-Oct 18:30 BHS 104 Bounty King HR Main Event $3,150 $3,150.00 $150,000
15-Oct 18:30 BHS 105 Bounty King Main Event $315 $315.00 $150,000
15-Oct 18:30 BHS 106 Bounty King Mini Main Event $31.50 $31.50 $75,000
15-Oct 19:00 BHS 107 PLO High Roller $1,050 $1,050.00 $50,000
15-Oct 19:00 BHS 108 Omaholic Main Event $105 [Bounty Edition] $105.00 $20,000
15-Oct 19:00 BHS Event Speed Racer SE $31.50 [10 BB] $31.50 $10,000
15-Oct 19:30 BHS 109 Special Edition $105 $105.00 $100,000
15-Oct 20:00 BHS 110 8-Max $84 [Faster Levels] $84.00 $50,000
15-Oct 20:30 BHS 111 Six Shooter High Roller $1,260 $1,260.00 $100,000
15-Oct 21:00 BHS 112 Turbo $52.50 [Bounty Edition] $52.50 $25,000
15-Oct 21:00 BHS 113 Turbo $5.25 [Bounty Edition] $5.25 $5,000
15-Oct 22:00 BHS 114 Hyper Special Edition $52.50 $52.50 $25,000
15-Oct 22:00 BHS 115 Hyper Special Edition $5.25 $5.25 $5,000
15-Oct 22:00 BHS Event Blade Bounty Closer $5,250 $5,250.00 $75,000
15-Oct 23:00 BHS Event Speed Racer SE $10.50 [10 BB] $10.50 $7,500
15-Oct 23:00 BHS Event Speed Racer SE $105 [10 BB] $105.00 $25,000
16-Oct 0:00 BHS Event Midnight Madness $126 $126.00 $40,000
16-Oct 0:30 BHS Event Special Edition $105 $105.00 $30,000
16-Oct 0:30 BHS Event Special Edition $10.50 $10.50 $10,000
16-Oct 2:00 BHS Event Six Shooter Special $126 $126.00 $20,000
16-Oct 2:30 BHS Event Turbo Special Edition $21 $21.00 $10,000
16-Oct 2:30 BHS Event Turbo Special Edition $210 $210.00 $25,000
16-Oct 3:00 BHS Event Speed Racer SE $52.50 [10 BB] $52.50 $10,000
16-Oct 12:30 BHS 116 Blastoff $210 $210.00 $50,000
16-Oct 13:00 BHS Event Speed Racer SE $52.50 [10 BB] $52.50 $10,000
16-Oct 13:30 BHS 117 Six Shooter Special $105 $105.00 $40,000
16-Oct 13:30 BHS 118 Six Shooter Special $10.50 $10.50 $25,000
16-Oct 14:00 BHS 119 8-Max $5.25 $5.25 $20,000
16-Oct 14:00 BHS 120 Battle of Marathon $315 $315.00 $100,000
16-Oct 14:30 BHS 121 Special Edition $84 $84.00 $100,000
16-Oct 15:00 BHS Event Speed Racer SE $21 [10 BB] $21.00 $10,000
16-Oct 15:30 BHS 122 Six Shooter $252 $252.00 $100,000
16-Oct 16:00 BHS 123 Forty Stack $420 [Bounty Edition] $420.00 $100,000
16-Oct 16:00 BHS Event Blade Bounty Opener $5,250 $5,250.00 $60,000
16-Oct 16:30 BHS 124 Bounty Hunters High Roller SE $525 $525.00 $100,000
16-Oct 17:00 BHS 125 GGMasters Daily $25.20 [Bounty Edition] $25.20 $50,000
16-Oct 17:30 BHS 126 Special Edition $210 $210.00 $125,000
16-Oct 18:30 BHS 127 Bounty King HR Main Event $3,150 $3,150.00 $150,000
16-Oct 18:30 BHS 128 Bounty King Main Event $315 $315.00 $150,000
16-Oct 18:30 BHS 129 Bounty King Mini Main Event $31.50 $31.50 $75,000
16-Oct 19:00 BHS 130 PLO High Roller $1,050 $1,050.00 $50,000
16-Oct 19:00 BHS 131 Omaholic Main Event $105 [Bounty Edition] $105.00 $20,000
16-Oct 19:00 BHS Event Speed Racer SE $31.50 [10 BB] $31.50 $10,000
16-Oct 19:30 BHS 132 Special Edition $105 $105.00 $100,000
16-Oct 20:00 BHS 133 8-Max $84 [Faster Levels] $84.00 $50,000
16-Oct 20:30 BHS 134 Six Shooter High Roller $1,260 $1,260.00 $100,000
16-Oct 21:00 BHS 135 Turbo $52.50 [Bounty Edition] $52.50 $25,000
16-Oct 21:00 BHS 136 Turbo $5.25 [Bounty Edition] $5.25 $5,000
16-Oct 22:00 BHS 137 Hyper Special Edition $52.50 $52.50 $25,000
16-Oct 22:00 BHS 138 Hyper Special Edition $5.25 $5.25 $5,000
16-Oct 22:00 BHS Event Blade Bounty Closer $5,250 $5,250.00 $75,000
16-Oct 23:00 BHS Event Speed Racer SE $10.50 [10 BB] $10.50 $7,500
16-Oct 23:00 BHS Event Speed Racer SE $105 [10 BB] $105.00 $25,000
17-Oct 0:00 BHS Event Midnight Madness $126 $126.00 $40,000
17-Oct 0:30 BHS Event Special Edition $105 $105.00 $30,000
17-Oct 0:30 BHS Event Special Edition $10.50 $10.50 $10,000
17-Oct 2:00 BHS Event Six Shooter Special $126 $126.00 $20,000
17-Oct 2:30 BHS Event Turbo Special Edition $21 $21.00 $10,000
17-Oct 2:30 BHS Event Turbo Special Edition $210 $210.00 $25,000
17-Oct 3:00 BHS Event Speed Racer SE $52.50 [10 BB] $52.50 $10,000
17-Oct 11:00 BHS 139 Saturday Starter $105 $105.00 $25,000
17-Oct 11:30 BHS Event Saturday Speed Racer Open $42 [10BB] $42.00 $10,000
17-Oct 12:30 BHS 140 Blastoff $210 $210.00 $50,000
17-Oct 13:00 BHS Event Speed Racer SE $52.50 [10 BB] $52.50 $10,000
17-Oct 13:30 BHS 141 Six Shooter Special $105 $105.00 $40,000
17-Oct 13:30 BHS 142 Six Shooter Special $10.50 $10.50 $25,000
17-Oct 14:00 BHS 143 8-Max $5.25 $5.25 $20,000
17-Oct 14:00 BHS 144 Battle of Marathon $315 $315.00 $100,000
17-Oct 14:30 BHS 145 Special Edition $84 $84.00 $100,000
17-Oct 15:00 BHS Event Speed Racer SE $21 [10 BB] $21.00 $10,000
17-Oct 15:30 BHS 146 Six Shooter $252 $252.00 $125,000
17-Oct 16:00 BHS 147 Forty Stack $420 [Bounty Edition] $420.00 $100,000
17-Oct 16:00 BHS Event Blade Bounty Opener $5,250 $5,250.00 $60,000
17-Oct 16:30 BHS 148 Bounty Hunters High Roller SE $525 $525.00 $100,000
17-Oct 17:00 BHS 149 GGMasters Daily $25.20 [Bounty Edition] $25.20 $50,000
17-Oct 17:00 BHS 150 Beat the Pros Special Edition $210 $210.00 $250,000
17-Oct 18:30 BHS 151 Bounty King HR Main Event $3,150 $3,150.00 $150,000
17-Oct 18:30 BHS 152 Bounty King Main Event $315 $315.00 $150,000
17-Oct 18:30 BHS 153 Bounty King Mini Main Event $31.50 $31.50 $75,000
17-Oct 19:00 BHS 154 PLO High Roller $1,050 $1,050.00 $50,000
17-Oct 19:00 BHS 155 Omaholic Main Event $105 [Bounty Edition] $105.00 $20,000
17-Oct 19:00 BHS Event Speed Racer SE $31.50 [10 BB] $31.50 $10,000
17-Oct 19:30 BHS 156 Special Edition $105 $105.00 $100,000
17-Oct 20:00 BHS 157 8-Max $84 $84.00 $50,000
17-Oct 20:30 BHS 158 Six Shooter High Roller $1,260 $1,260.00 $100,000
17-Oct 21:00 BHS 159 Turbo $52.50 [Bounty Edition] $52.50 $25,000
17-Oct 21:00 BHS 160 Turbo $5.25 [Bounty Edition] $5.25 $5,000
17-Oct 22:00 BHS 161 Hyper Special Edition $52.50 $52.50 $25,000
17-Oct 22:00 BHS 162 Hyper Special Edition $5.25 $5.25 $5,000
17-Oct 22:00 BHS Event Blade Bounty Closer $5,250 $5,250.00 $75,000
17-Oct 23:00 BHS Event Saturday Speed Racer Closer $42 [10BB] $42.00 $10,000
18-Oct 0:00 BHS Event Midnight Madness $126 $126.00 $40,000
18-Oct 0:30 BHS Event Special Edition $105 $105.00 $30,000
18-Oct 0:30 BHS Event Special Edition $10.50 $10.50 $10,000
18-Oct 2:00 BHS Event Six Shooter Special $126 $126.00 $20,000
18-Oct 2:30 BHS Event Turbo Special Edition $21 $21.00 $10,000
18-Oct 2:30 BHS Event Turbo Special Edition $210 $210.00 $25,000
18-Oct 3:00 BHS Event Speed Racer SE $52.50 [10 BB] $52.50 $10,000
18-Oct 12:00 BHS 163 Sunday Blastoff $210 $210.00 $100,000
18-Oct 12:30 BHS 164 PLO 6-Max $105 $105.00 $25,000
18-Oct 13:00 BHS 165 Turbo $5.25 $5.25 $10,000
18-Oct 13:00 BHS Event Speed Racer SE $52.50 [10 BB] $52.50 $10,000
18-Oct 13:30 BHS 166 Sunday Six Shooter Special $105 $105.00 $50,000
18-Oct 13:30 BHS 167 Sunday Six Shooter Turbo $10.50 $10.50 $25,000
18-Oct 14:00 BHS 168 Sunday Battle of Marathon $315 $315.00 $250,000
18-Oct 14:30 BHS 169 Special Edition $84 $84.00 $200,000
18-Oct 14:30 BHS 170 High Roller $840 $840.00 $250,000
18-Oct 15:00 BHS Event Speed Racer SE $21 [10 BB] $21.00 $10,000
18-Oct 15:30 BHS 171 Main Event Special Edition $210 $210.00 $500,000
18-Oct 16:00 BHS Event Blade Bounty Opener $5,250 $5,250.00 $60,000
18-Oct 16:30 BHS 172 Bounty High Roller SE $525 $525.00 $200,000
18-Oct 17:00 BHS 173 GGMasters $157.50 [Bounty Edition] $157.50 $500,000
18-Oct 17:00 BHS 174 GGMasters High Rollers $1,050 [Bounty Edition] $1,050.00 $1,000,000
18-Oct 17:30 BHS 175 PLO High Roller $2,100 $2,100.00 $100,000
18-Oct 17:30 BHS 176 PLO Main Event $210 $210.00 $50,000
18-Oct 18:30 BHS 177 Super MILLION$ Bounty Hunters $10,300 $10,300.00 $1,000,000
18-Oct 18:30 BHS 178 Sunday Bounty King High Roller SE $3,150 $3,150.00 $300,000
18-Oct 18:30 BHS 179 Sunday Bounty King Special Edition $315 $315.00 $400,000
18-Oct 19:00 BHS 180 Special Edition $52.50 $52.50 $150,000
18-Oct 19:00 BHS Event Speed Racer SE $31.50 [10 BB] $31.50 $10,000
18-Oct 19:30 BHS 181 Special Edition $105 $105.00 $200,000
18-Oct 20:30 BHS 182 Six Shooter High Roller $1,260 $1,260.00 $200,000
18-Oct 21:00 BHS 183 Sunday Turbo Special $52.50 [Bounty Edition] $52.50 $50,000
18-Oct 21:00 BHS 184 Sunday Turbo Special $5.25 [Bounty Edition] $5.25 $10,000
18-Oct 22:00 BHS 185 Blade Bounty Closer $5,250 $5,250.00 $150,000
18-Oct 22:00 BHS 186 Sunday Hyper Special $52.50 [Bounty Edition] $52.50 $50,000
18-Oct 22:00 BHS 187 Sunday Hyper Special $5.25 [Bounty Edition] $5.25 $10,000
18-Oct 22:00 BHS Event Blade Bounty Closer $5,250 $5,250.00 $75,000
18-Oct 23:00 BHS Event Sunday Speed Racer SE $210 [10BB] $210.00 $50,000
18-Oct 23:00 BHS Event Sunday Speed Racer SE $21 [10BB] $21.00 $20,000
19-Oct 0:00 BHS Event Midnight Madness $126 $126.00 $40,000
19-Oct 0:30 BHS Event Special Edition $105 $105.00 $30,000
19-Oct 0:30 BHS Event Special Edition $10.50 $10.50 $10,000
19-Oct 2:00 BHS Event Six Shooter Special $126 $126.00 $20,000
19-Oct 2:30 BHS Event Turbo Special Edition $21 $21.00 $10,000
19-Oct 2:30 BHS Event Turbo Special Edition $210 $210.00 $25,000
19-Oct 3:00 BHS Event Speed Racer SE $52.50 [10 BB] $52.50 $10,000
19-Oct 12:30 BHS 188 Blastoff $210 $210.00 $50,000
19-Oct 13:00 BHS Event Speed Racer SE $52.50 [10 BB] $52.50 $10,000
19-Oct 13:30 BHS 189 Six Shooter Special $105 $105.00 $40,000
19-Oct 13:30 BHS 190 Six Shooter Special $10.50 $10.50 $25,000
19-Oct 14:00 BHS 191 8-Max $5.25 $5.25 $20,000
19-Oct 14:00 BHS 192 Battle of Marathon $315 $315.00 $100,000
19-Oct 14:30 BHS 193 Special Edition $84 $84.00 $100,000
19-Oct 15:00 BHS Event Speed Racer SE $21 [10 BB] $21.00 $10,000
19-Oct 15:30 BHS 194 Six Shooter $252 $252.00 $100,000
19-Oct 16:00 BHS 195 Forty Stack $420 [Bounty Edition] $420.00 $100,000
19-Oct 16:00 BHS Event Blade Bounty Opener $5,250 $5,250.00 $60,000
19-Oct 16:30 BHS 196 Bounty Hunters High Roller SE $525 $525.00 $100,000
19-Oct 17:00 BHS 197 GGMasters Daily $25.20 [Bounty Edition] $25.20 $50,000
19-Oct 17:30 BHS 198 Special Edition $210 $210.00 $125,000
19-Oct 18:30 BHS 199 Bounty King HR Main Event $3,150 $3,150.00 $150,000
19-Oct 18:30 BHS 200 Bounty King Main Event $315 $315.00 $150,000
19-Oct 18:30 BHS 201 Bounty King Mini Main Event $31.50 $31.50 $75,000
19-Oct 19:00 BHS 202 PLO High Roller $1,050 $1,050.00 $50,000
19-Oct 19:00 BHS 203 Omaholic Main Event $105 [Bounty Edition] $105.00 $20,000
19-Oct 19:00 BHS Event Speed Racer SE $31.50 [10 BB] $31.50 $10,000
19-Oct 19:30 BHS 204 Special Edition $105 $105.00 $100,000
19-Oct 20:00 BHS 205 8-Max $84 [Faster Levels] $84.00 $50,000
19-Oct 20:30 BHS 206 Six Shooter High Roller $1,260 $1,260.00 $100,000
19-Oct 21:00 BHS 207 Turbo $52.50 [Bounty Edition] $52.50 $25,000
19-Oct 21:00 BHS 208 Turbo $5.25 [Bounty Edition] $5.25 $5,000
19-Oct 22:00 BHS 209 Hyper Special Edition $52.50 $52.50 $25,000
19-Oct 22:00 BHS 210 Hyper Special Edition $5.25 $5.25 $5,000
19-Oct 22:00 BHS Event Blade Bounty Closer $5,250 $5,250.00 $75,000
19-Oct 23:00 BHS Event Speed Racer SE $10.50 [10 BB] $10.50 $7,500
19-Oct 23:00 BHS Event Speed Racer SE $105 [10 BB] $105.00 $25,000
20-Oct 0:00 BHS Event Midnight Madness $126 $126.00 $40,000
20-Oct 0:30 BHS Event Special Edition $105 $105.00 $30,000
20-Oct 0:30 BHS Event Special Edition $10.50 $10.50 $10,000
20-Oct 2:00 BHS Event Six Shooter Special $126 $126.00 $20,000
20-Oct 2:30 BHS Event Turbo Special Edition $21 $21.00 $10,000
20-Oct 2:30 BHS Event Turbo Special Edition $210 $210.00 $25,000
20-Oct 3:00 BHS Event Speed Racer SE $52.50 [10 BB] $52.50 $10,000
20-Oct 12:30 BHS 211 Blastoff $210 $210.00 $50,000
20-Oct 13:00 BHS Event Speed Racer SE $52.50 [10 BB] $52.50 $10,000
20-Oct 13:30 BHS 212 Six Shooter Special $105 $105.00 $40,000
20-Oct 13:30 BHS 213 Six Shooter Special $10.50 $10.50 $25,000
20-Oct 14:00 BHS 214 8-Max $5.25 $5.25 $20,000
20-Oct 14:00 BHS 215 Battle of Marathon $315 $315.00 $100,000
20-Oct 14:30 BHS 216 Special Edition $84 $84.00 $100,000
20-Oct 15:00 BHS Event Speed Racer SE $21 [10 BB] $21.00 $10,000
20-Oct 15:30 BHS 217 Six Shooter $252 $252.00 $100,000
20-Oct 16:00 BHS 218 Forty Stack $420 [Bounty Edition] $420.00 $100,000
20-Oct 16:00 BHS Event Blade Bounty Opener $5,250 $5,250.00 $60,000
20-Oct 16:30 BHS 219 Bounty Hunters High Roller SE $525 $525.00 $100,000
20-Oct 17:00 BHS 220 GGMasters Daily $25.20 [Bounty Edition] $25.20 $50,000
20-Oct 17:30 BHS 221 Special Edition $210 $210.00 $125,000
20-Oct 18:30 BHS 222 Bounty King HR Main Event $3,150 $3,150.00 $150,000
20-Oct 18:30 BHS 223 Bounty King Main Event $315 $315.00 $150,000
20-Oct 18:30 BHS 224 Bounty King Mini Main Event $31.50 $31.50 $75,000
20-Oct 19:00 BHS 225 PLO High Roller $1,050 $1,050.00 $50,000
20-Oct 19:00 BHS 226 Omaholic Main Event $105 [Bounty Edition] $105.00 $20,000
20-Oct 19:00 BHS Event Speed Racer SE $31.50 [10 BB] $31.50 $10,000
20-Oct 19:30 BHS 227 Special Edition $105 $105.00 $100,000
20-Oct 20:00 BHS 228 Blade Big Game Hunter $5,250 $5,250.00 $200,000
20-Oct 20:00 BHS 229 8-Max $84 [Faster Levels] $84.00 $50,000
20-Oct 20:30 BHS 230 Six Shooter High Roller $1,260 $1,260.00 $100,000
20-Oct 21:00 BHS 231 Turbo $52.50 [Bounty Edition] $52.50 $25,000
20-Oct 21:00 BHS 232 Turbo $5.25 [Bounty Edition] $5.25 $5,000
20-Oct 22:00 BHS 233 Hyper Special Edition $52.50 $52.50 $25,000
20-Oct 22:00 BHS 234 Hyper Special Edition $5.25 $5.25 $5,000
20-Oct 22:00 BHS Event Blade Bounty Closer $5,250 $5,250.00 $75,000
20-Oct 23:00 BHS Event Speed Racer SE $10.50 [10 BB] $10.50 $7,500
20-Oct 23:00 BHS Event Speed Racer SE $105 [10 BB] $105.00 $25,000
21-Oct 0:00 BHS Event Midnight Madness $126 $126.00 $40,000
21-Oct 0:30 BHS Event Special Edition $105 $105.00 $30,000
21-Oct 0:30 BHS Event Special Edition $10.50 $10.50 $10,000
21-Oct 2:00 BHS Event Six Shooter Special $126 $126.00 $20,000
21-Oct 2:30 BHS Event Turbo Special Edition $21 $21.00 $10,000
21-Oct 2:30 BHS Event Turbo Special Edition $210 $210.00 $25,000
21-Oct 3:00 BHS Event Speed Racer SE $52.50 [10 BB] $52.50 $10,000
21-Oct 12:30 BHS 235 Blastoff $210 $210.00 $50,000
21-Oct 13:00 BHS Event Speed Racer SE $52.50 [10 BB] $52.50 $10,000
21-Oct 13:30 BHS 236 Six Shooter Special $105 $105.00 $40,000
21-Oct 13:30 BHS 237 Six Shooter Special $10.50 $10.50 $25,000
21-Oct 14:00 BHS 238 8-Max $5.25 $5.25 $20,000
21-Oct 14:00 BHS 239 Battle of Marathon $315 $315.00 $100,000
21-Oct 14:30 BHS 240 Special Edition $84 $84.00 $100,000
21-Oct 14:30 BHS 241 High Roller $840 $840.00 $150,000
21-Oct 15:00 BHS Event Speed Racer SE $21 [10 BB] $21.00 $10,000
21-Oct 15:30 BHS 242 Six Shooter $252 $252.00 $100,000
21-Oct 16:00 BHS 243 Forty Stack $420 [Bounty Edition] $420.00 $100,000
21-Oct 16:00 BHS Event Blade Bounty Opener $5,250 $5,250.00 $60,000
21-Oct 16:30 BHS 244 Bounty Hunters High Roller SE $525 $525.00 $100,000
21-Oct 17:00 BHS 245 GGMasters Daily $25.20 [Bounty Edition] $25.20 $50,000
21-Oct 17:30 BHS 246 Special Edition $210 $210.00 $125,000
21-Oct 18:30 BHS 247 Bounty King HR Main Event $3,150 $3,150.00 $150,000
21-Oct 18:30 BHS 248 Bounty King Main Event $315 $315.00 $150,000
21-Oct 18:30 BHS 249 Bounty King Mini Main Event $31.50 $31.50 $75,000
21-Oct 19:00 BHS 250 PLO High Roller $1,050 $1,050.00 $50,000
21-Oct 19:00 BHS 251 Omaholic Main Event $105 [Bounty Edition] $105.00 $20,000
21-Oct 19:00 BHS Event Speed Racer SE $31.50 [10 BB] $31.50 $10,000
21-Oct 19:30 BHS 252 Special Edition $105 $105.00 $100,000
21-Oct 20:00 BHS 253 8-Max $84 [Faster Levels] $84.00 $50,000
21-Oct 20:30 BHS 254 Six Shooter High Roller $1,260 $1,260.00 $100,000
21-Oct 21:00 BHS 255 Turbo $52.50 [Bounty Edition] $52.50 $25,000
21-Oct 21:00 BHS 256 Turbo $5.25 [Bounty Edition] $5.25 $5,000
21-Oct 22:00 BHS 257 Hyper Special Edition $52.50 $52.50 $25,000
21-Oct 22:00 BHS Event Blade Bounty Closer $5,250 $5,250.00 $75,000
21-Oct 23:00 BHS Event Speed Racer SE $10.50 [10 BB] $10.50 $7,500
21-Oct 23:00 BHS Event Speed Racer SE $105 [10 BB] $105.00 $25,000
22-Oct 0:00 BHS Event Midnight Madness $126 $126.00 $40,000
22-Oct 0:30 BHS Event Special Edition $105 $105.00 $30,000
22-Oct 0:30 BHS Event Special Edition $10.50 $10.50 $10,000
22-Oct 2:00 BHS Event Six Shooter Special $126 $126.00 $20,000
22-Oct 2:30 BHS Event Turbo Special Edition $21 $21.00 $10,000
22-Oct 2:30 BHS Event Turbo Special Edition $210 $210.00 $25,000
22-Oct 3:00 BHS Event Speed Racer SE $52.50 [10 BB] $52.50 $10,000
22-Oct 12:30 BHS 258 Blastoff $210 $210.00 $50,000
22-Oct 13:00 BHS Event Speed Racer SE $52.50 [10 BB] $52.50 $10,000
22-Oct 13:30 BHS 259 Six Shooter Special $105 $105.00 $40,000
22-Oct 13:30 BHS 260 Six Shooter Special $10.50 $10.50 $25,000
22-Oct 14:00 BHS 261 8-Max $5.25 $5.25 $20,000
22-Oct 14:00 BHS 262 Battle of Marathon $315 $315.00 $100,000
22-Oct 14:30 BHS 263 Special Edition $84 $84.00 $100,000
22-Oct 15:00 BHS Event Speed Racer SE $21 [10 BB] $21.00 $10,000
22-Oct 15:30 BHS 264 Six Shooter $252 $252.00 $100,000
22-Oct 16:00 BHS 265 Forty Stack $420 [Bounty Edition] $420.00 $100,000
22-Oct 16:00 BHS Event Blade Bounty Opener $5,250 $5,250.00 $60,000
22-Oct 16:30 BHS 266 Bounty Hunters High Roller SE $525 $525.00 $100,000
22-Oct 17:00 BHS 267 GGMasters Daily $25.20 [Bounty Edition] $25.20 $50,000
22-Oct 17:30 BHS 268 Special Edition $210 $210.00 $125,000
22-Oct 18:30 BHS 269 Bounty King HR Main Event $3,150 $3,150.00 $150,000
22-Oct 18:30 BHS 270 Bounty King Main Event $315 $315.00 $150,000
22-Oct 18:30 BHS 271 Bounty King Mini Main Event $31.50 $31.50 $75,000
22-Oct 19:00 BHS 272 PLO High Roller $1,050 $1,050.00 $50,000
22-Oct 19:00 BHS 273 Omaholic Main Event $105 [Bounty Edition] $105.00 $20,000
22-Oct 19:00 BHS Event Speed Racer SE $31.50 [10 BB] $31.50 $10,000
22-Oct 19:30 BHS 274 Special Edition $105 $105.00 $100,000
22-Oct 20:00 BHS 275 8-Max $84 [Faster Levels] $84.00 $50,000
22-Oct 20:30 BHS 276 Six Shooter High Roller $1,260 $1,260.00 $100,000
22-Oct 21:00 BHS 277 Turbo $52.50 [Bounty Edition] $52.50 $25,000
22-Oct 21:00 BHS 278 Turbo $5.25 [Bounty Edition] $5.25 $5,000
22-Oct 22:00 BHS 279 Hyper Special Edition $5.25 $5.25 $5,000
22-Oct 22:00 BHS 280 Hyper Special Edition $52.50 $52.50 $25,000
22-Oct 22:00 BHS Event Blade Bounty Closer $5,250 $5,250.00 $75,000
22-Oct 23:00 BHS Event Speed Racer SE $10.50 [10 BB] $10.50 $7,500
22-Oct 23:00 BHS Event Speed Racer SE $105 [10 BB] $105.00 $25,000
23-Oct 0:00 BHS Event Midnight Madness $126 $126.00 $40,000
23-Oct 0:30 BHS Event Special Edition $105 $105.00 $30,000
23-Oct 0:30 BHS Event Special Edition $10.50 $10.50 $10,000
23-Oct 2:00 BHS Event Six Shooter Special $126 $126.00 $20,000
23-Oct 2:30 BHS Event Turbo Special Edition $21 $21.00 $10,000
23-Oct 2:30 BHS Event Turbo Special Edition $210 $210.00 $25,000
23-Oct 3:00 BHS Event Speed Racer SE $52.50 [10 BB] $52.50 $10,000
23-Oct 12:30 BHS 281 Blastoff $210 $210.00 $50,000
23-Oct 13:00 BHS Event Speed Racer SE $52.50 [10 BB] $52.50 $10,000
23-Oct 13:30 BHS 282 Six Shooter Special $105 $105.00 $40,000
23-Oct 13:30 BHS 283 Six Shooter Special $10.50 $10.50 $25,000
23-Oct 14:00 BHS 284 8-Max $5.25 $5.25 $20,000
23-Oct 14:00 BHS 285 Battle of Marathon $315 $315.00 $100,000
23-Oct 14:30 BHS 286 Special Edition $84 $84.00 $75,000
23-Oct 15:00 BHS Event Speed Racer SE $21 [10 BB] $21.00 $10,000
23-Oct 15:30 BHS 287 Six Shooter $252 $252.00 $125,000
23-Oct 16:00 BHS 288 Forty Stack $420 [Bounty Edition] $420.00 $100,000
23-Oct 16:00 BHS Event Blade Bounty Opener $5,250 $5,250.00 $60,000
23-Oct 16:30 BHS 289 Bounty Hunters High Roller SE $525 $525.00 $100,000
23-Oct 17:00 BHS 290 GGMasters Daily $25.20 [Bounty Edition] $25.20 $50,000
23-Oct 17:30 BHS 291 Special Edition $210 $210.00 $125,000
23-Oct 18:30 BHS 292 Bounty King HR Main Event $3,150 $3,150.00 $150,000
23-Oct 18:30 BHS 293 Bounty King Main Event $315 $315.00 $150,000
23-Oct 18:30 BHS 294 Bounty King Mini Main Event $31.50 $31.50 $75,000
23-Oct 19:00 BHS 295 PLO High Roller $1,050 $1,050.00 $50,000
23-Oct 19:00 BHS 296 Omaholic Main Event $105 [Bounty Edition] $105.00 $20,000
23-Oct 19:00 BHS Event Speed Racer SE $31.50 [10 BB] $31.50 $10,000
23-Oct 19:30 BHS 297 Special Edition $105 $105.00 $100,000
23-Oct 20:00 BHS 298 8-Max $84 [Faster Levels] $84.00 $50,000
23-Oct 20:30 BHS 299 Six Shooter High Roller $1,260 $1,260.00 $100,000
23-Oct 21:00 BHS 300 Turbo $52.50 [Bounty Edition] $52.50 $25,000
23-Oct 21:00 BHS 301 Turbo $5.25 [Bounty Edition] $5.25 $5,000
23-Oct 22:00 BHS 302 Hyper Special Edition $5.25 $5.25 $5,000
23-Oct 22:00 BHS 303 Hyper Special Edition $52.50 $52.50 $25,000
23-Oct 22:00 BHS Event Blade Bounty Closer $5,250 $5,250.00 $75,000
23-Oct 23:00 BHS Event Speed Racer SE $10.50 [10 BB] $10.50 $7,500
23-Oct 23:00 BHS Event Speed Racer SE $105 [10 BB] $105.00 $25,000
24-Oct 0:00 BHS Event Midnight Madness $126 $126.00 $40,000
24-Oct 0:30 BHS Event Special Edition $105 $105.00 $30,000
24-Oct 0:30 BHS Event Special Edition $10.50 $10.50 $10,000
24-Oct 2:00 BHS Event Six Shooter Special $126 $126.00 $20,000
24-Oct 2:30 BHS Event Turbo Special Edition $21 $21.00 $10,000
24-Oct 2:30 BHS Event Turbo Special Edition $210 $210.00 $25,000
24-Oct 3:00 BHS Event Speed Racer SE $52.50 [10 BB] $52.50 $10,000
24-Oct 11:00 BHS 304 Saturday Starter $105 $105.00 $25,000
24-Oct 11:30 BHS Event Saturday Speed Racer Open $42 [10BB] $42.00 $10,000
24-Oct 12:30 BHS 305 Blastoff $210 $210.00 $50,000
24-Oct 13:00 BHS Event Speed Racer SE $52.50 [10 BB] $52.50 $10,000
24-Oct 13:30 BHS 306 Six Shooter Special $105 $105.00 $40,000
24-Oct 13:30 BHS 307 Six Shooter Special $10.50 $10.50 $25,000
24-Oct 14:00 BHS 308 8-Max $5.25 $5.25 $20,000
24-Oct 14:00 BHS 309 Battle of Marathon $315 $315.00 $100,000
24-Oct 14:30 BHS 310 Special Edition $84 $84.00 $100,000
24-Oct 15:00 BHS Event Speed Racer SE $21 [10 BB] $21.00 $10,000
24-Oct 15:30 BHS 311 Six Shooter $252 $252.00 $125,000
24-Oct 16:00 BHS 312 Forty Stack $420 [Bounty Edition] $420.00 $100,000
24-Oct 16:00 BHS Event Blade Bounty Opener $5,250 $5,250.00 $60,000
24-Oct 16:30 BHS 313 Bounty Hunters High Roller SE $525 $525.00 $100,000
24-Oct 17:00 BHS 314 GGMasters Daily $25.20 [Bounty Edition] $25.20 $50,000
24-Oct 17:00 BHS 315 Beat the Pros Special Edition $210 $210.00 $250,000
24-Oct 18:30 BHS 316 Bounty King HR Main Event $3,150 $3,150.00 $150,000
24-Oct 18:30 BHS 317 Bounty King Main Event $315 $315.00 $150,000
24-Oct 18:30 BHS 318 Bounty King Mini Main Event $31.50 $31.50 $75,000
24-Oct 19:00 BHS 319 PLO High Roller $1,050 $1,050.00 $50,000
24-Oct 19:00 BHS 320 Omaholic Main Event $105 [Bounty Edition] $105.00 $20,000
24-Oct 19:00 BHS Event Speed Racer SE $31.50 [10 BB] $31.50 $10,000
24-Oct 19:30 BHS 321 Special Edition $105 $105.00 $100,000
24-Oct 20:00 BHS 322 8-Max $84 $84.00 $50,000
24-Oct 20:30 BHS 323 Six Shooter High Roller $1,260 $1,260.00 $100,000
24-Oct 21:00 BHS 324 Turbo $52.50 [Bounty Edition] $52.50 $25,000
24-Oct 21:00 BHS 325 Turbo $5.25 [Bounty Edition] $5.25 $5,000
24-Oct 22:00 BHS 326 Hyper Special Edition $5.25 $5.25 $5,000
24-Oct 22:00 BHS 327 Hyper Special Edition $52.50 $52.50 $25,000
24-Oct 22:00 BHS Event Blade Bounty Closer $5,250 $5,250.00 $75,000
24-Oct 23:00 BHS Event Saturday Speed Racer Closer $42 [10BB] $42.00 $10,000
25-Oct 0:00 BHS Event Midnight Madness $126 $126.00 $40,000
25-Oct 0:30 BHS Event Special Edition $105 $105.00 $30,000
25-Oct 0:30 BHS Event Special Edition $10.50 $10.50 $10,000
25-Oct 2:00 BHS Event Six Shooter Special $126 $126.00 $20,000
25-Oct 2:30 BHS Event Turbo Special Edition $21 $21.00 $10,000
25-Oct 2:30 BHS Event Turbo Special Edition $210 $210.00 $25,000
25-Oct 3:00 BHS Event Speed Racer SE $52.50 [10 BB] $52.50 $10,000
25-Oct 12:30 BHS 328 Sunday Blastoff $210 $210.00 $100,000
25-Oct 12:30 BHS 329 PLO 6-Max $105 $105.00 $25,000
25-Oct 13:00 BHS 330 Turbo $5.25 $5.25 $10,000
25-Oct 13:00 BHS Event Speed Racer SE $52.50 [10 BB] $52.50 $10,000
25-Oct 13:30 BHS 331 Sunday Six Shooter Special $105 $105.00 $50,000
25-Oct 13:30 BHS 332 Sunday Six Shooter Turbo $10.50 $10.50 $25,000
25-Oct 14:00 BHS 333 Sunday Battle of Marathon $315 $315.00 $250,000
25-Oct 14:30 BHS 334 Special Edition $84 $84.00 $200,000
25-Oct 15:00 BHS Event Speed Racer SE $21 [10 BB] $21.00 $10,000
25-Oct 15:30 BHS 335 Main Event Special Edition $210 $210.00 $500,000
25-Oct 16:00 BHS Event Blade Bounty Opener $5,250 $5,250.00 $60,000
25-Oct 16:30 BHS 336 Bounty High Roller SE $525 $525.00 $200,000
25-Oct 17:00 BHS 337 GGMasters $157.50 [Bounty Edition] $157.50 $500,000
25-Oct 17:00 BHS 338 GGMasters High Rollers $1,050 [Bounty Edition] $1,050.00 $1,000,000
25-Oct 17:30 BHS 339 PLO High Roller $2,100 $2,100.00 $100,000
25-Oct 17:30 BHS 340 PLO Main Event $210 $210.00 $50,000
25-Oct 18:30 BHS 341 Super MILLION$ Bounty Hunters $10,300 $10,300.00 $1,000,000
25-Oct 18:30 BHS 342 Sunday Bounty King High Roller SE $3,150 $3,150.00 $300,000
25-Oct 18:30 BHS 343 Sunday Bounty King Special Edition $315 $315.00 $400,000
25-Oct 19:00 BHS 344 Special Edition $52.50 $52.50 $150,000
25-Oct 19:00 BHS Event Speed Racer SE $31.50 [10 BB] $31.50 $10,000
25-Oct 19:30 BHS 345 Special Edition $105 $105.00 $200,000
25-Oct 20:30 BHS 346 Six Shooter High Roller $1,260 $1,260.00 $200,000
25-Oct 21:00 BHS 347 Sunday Turbo Special $52.50 [Bounty Edition] $52.50 $50,000
25-Oct 21:00 BHS 348 Sunday Turbo Special $5.25 [Bounty Edition] $5.25 $10,000
25-Oct 22:00 BHS 349 Hyper Special Edition $5.25 $5.25 $5,000
25-Oct 22:00 BHS 350 Blade Bounty Closer $5,250 $5,250.00 $150,000
25-Oct 22:00 BHS 351 Sunday Hyper Special $52.50 [Bounty Edition] $52.50 $50,000
25-Oct 22:00 BHS 352 Sunday Hyper Special $5.25 [Bounty Edition] $5.25 $10,000
25-Oct 22:00 BHS 353 Sunday Hyper Special $5.25 [Bounty Edition] $5.25 $10,000
25-Oct 22:00 BHS Event Blade Bounty Closer $5,250 $5,250.00 $75,000
25-Oct 23:00 BHS Event Sunday Speed Racer SE $210 [10BB] $210.00 $50,000
25-Oct 23:00 BHS Event Sunday Speed Racer SE $21 [10BB] $21.00 $20,000


 

Bounty Hunter Tournaments at GGPoker

How do Bounty Hunter Tournaments work?

 Bounty Hunters have moved to the progressive knockout model. You’ll now scoop half the bounty of a player you KO, directly into your bankroll. The other half goes onto your head. That makes you a juicier target! Bounty rewards will be credited to your player account instantly as you KO an opponent. For example: Tournament: $10.50 PKO MTT, Splits: $5 prizepool contribution, $5 KO contribution, $0.50 fee.  So, let’s say you just entered the tournament. First hand, you KO player B. $2.50 goes to your KO bank which appears in your account balance immediately. The remaining $2.50 goes onto your head.  Bounties will remain in play right up the final Heads Up, where the winner will claim the loser’s bounty as the tournament ends.

Who is behind GGPoker?

GGPoker is a member of GG Network, the fastest growing online poker network in the world. GGPoker is one of the biggest skins of the network and a very big name in the industry. Since November 2019, six time WSOP bracelet winner Daniel Negreanu has been the face of the GGPoker team.

What makes GGPoker unique and what games they offer?

GGPoker has a several unique features. You can protect your hand from bad beats with All-In Insurance, polish your game with their free in-house analysis tool, PokerCraft, or brag to your friends on a great hand won with their Hand Moments that allows players to share key hands easily on social media. Another cool feature is Tournament Staking, where you can buy a piece of your favourite player’s action or sell a piece of yours.

US

Top Betting Sites

special-offer-1Special offers

Upcoming Events

24 October 2020

16 March 2021